EGNR/CEG METAR and TAF weather

Enter ICAO airport designator
Station Type Date Time Source
EGNR METAR 2023/01/30 10:50 UTC NOAA

EGNR 301050Z 29007KT 250V340 9999 FEW016 SCT025 08/04 Q1026


Station Type Date Time Source
EGNR Decoded METAR 2023/01/30 10:50 UTC NOAA

Hawarden, United Kingdom (EGNR) 53-10N 002-59W 0M
Jan 30, 2023 - 05:50 AM EST / 2023.01.30 1050 UTC
Wind: from the WNW (290 degrees) at 8 MPH (7 KT) (direction variable):0
Visibility: greater than 7 mile(s):0
Sky conditions: partly cloudy
Temperature: 46 F (8 C)
Dew Point: 39 F (4 C)
Relative Humidity: 75%
Pressure (altimeter): 30.30 in. Hg (1026 hPa)
ob: EGNR 301050Z 29007KT 250V340 9999 FEW016 SCT025 08/04 Q1026
cycle: 11

Station Type Date Time Source
EGNR TAF 2016/01/23 12:00 UTC NOAA

TAF EGNR 231059Z 2312/2319 15009KT 9999 FEW020
BECMG 2316/2319 BKN014
TEMPO 2317/2319 6000 RA BKN008

Example: see airport list